River Of Ponds, Canada
Current Conditions -  °F | °C
As of 7:10 AM on Tuesday 27 Jan 2015 (Local Time) from CWDH Reporting Station
Broken Clouds Broken Clouds  
Wind Chill: -10°   Ceiling: 1500
Heat Index:   Visibility: 7mi
Dew Point: -5°   Wind: 9mph
Humidity: 66%   Direction: 320°NW
Pressure: 30.46"   Gusts: NA
Location:  50.53°N, 57.38°W
Report Text: CWDH 271010Z AUTO 32008KT 7SM BKN015 M15/M20 A3046 RMK T11541205 WSI/SWOB
Loading
Personal Weather Stations






























Interactive Weather Map New forecast layout! Learn more

10-Day Weather Forecast

Advertisements
Track Severe Weather on mobile